Terminal Aerodrome Forecast
Issued by NWS

Home | Current Version | Previous Version | Text Only | Print | Product List | Glossary On
Versions: 1 2 3 4 5 6 7 8 9 10 11 12
358
FTUS44 KEPZ 051730
TAFLRU
TAF
KLRU 051730Z 0518/0618 13012G18KT P6SM VCSH SCT100 BKN250
     FM060600 22009KT P6SM FEW120 FEW250
     FM061700 22013G23KT P6SM FEW100=

USA.gov is the U.S. government's official web portal to all federal, state and local government web resources and services.